Time;durP1;ratioP1;P1;durP2;ratioP2;P2;SDS_P1;SDS_P2;PMS_P1;PMS_P2;Temp;Humidity;BMP_temperature;BMP_pressure;BME280_temperature;BME280_humidity;BME280_pressure;Samples;Min_cycle;Max_cycle;Signal;HPM_P1;HPM_P2
2023/05/09 00:02:23;;;;;;;;;;;;;;;3.82;65.76;100073.41;135340;1281;22531;-66
2023/05/09 00:05:26;;;;;;;;;;;;;;;3.75;65.73;100069.52;131231;1281;5374154;-66
2023/05/09 00:08:28;;;;;;;;;;;;;;;3.71;65.91;100070.80;135304;1281;22515;-66
2023/05/09 00:11:31;;;;;;;;;;;;;;;3.64;65.86;100071.40;135357;1281;22497;-67
2023/05/09 00:14:33;;;;;;;;;;;;;;;3.56;66.21;100069.94;135369;1281;22504;-64
2023/05/09 00:17:37;;;;;;;;;;;;;;;3.56;66.31;100068.55;135359;1281;22563;-64
2023/05/09 00:20:40;;;;;;;;;;;;;;;3.50;66.40;100070.00;135358;1281;22516;-65
2023/05/09 00:23:43;;;;;;;;;;;;;;;3.43;66.54;100067.16;135326;1264;22544;-65
2023/05/09 00:26:47;;;;;;;;;;;;;;;3.43;66.55;100065.42;135388;1281;22500;-66
2023/05/09 00:29:50;;;;;;;;;;;;;;;3.44;66.64;100069.55;135371;1264;22507;-66
2023/05/09 00:32:53;;;;;;;;;;;;;;;3.43;67.02;100070.09;135378;1281;22515;-63
2023/05/09 00:35:56;;;;;;;;;;;;;;;3.46;66.96;100072.13;135355;1281;22530;-66
2023/05/09 00:38:59;;;;;;;;;;;;;;;3.48;66.96;100067.09;135153;1281;22524;-66
2023/05/09 00:42:15;;;;;;;;;;;;;;;3.39;67.01;100063.91;135144;1281;22499;-66
2023/05/09 00:45:17;;;;;;;;;;;;;;;3.28;67.46;100058.87;135353;1278;22516;-65
2023/05/09 00:48:20;;;;;;;;;;;;;;;3.19;67.50;100058.26;135356;1281;24254;-63
2023/05/09 00:51:23;;;;;;;;;;;;;;;3.15;67.45;100057.79;135371;1281;22515;-65
2023/05/09 00:54:26;;;;;;;;;;;;;;;3.11;67.61;100051.10;135380;1281;22523;-63
2023/05/09 00:57:29;;;;;;;;;;;;;;;3.12;67.57;100052.98;135395;1281;25305;-64
2023/05/09 01:00:32;;;;;;;;;;;;;;;3.14;67.50;100054.52;135380;1281;22510;-68
2023/05/09 01:03:35;;;;;;;;;;;;;;;3.12;68.00;100054.02;135398;1281;22542;-67
2023/05/09 01:06:38;;;;;;;;;;;;;;;3.13;67.91;100052.10;135334;1281;22607;-65
2023/05/09 01:09:41;;;;;;;;;;;;;;;3.14;68.22;100053.66;135412;1281;22507;-67
2023/05/09 01:12:43;;;;;;;;;;;;;;;3.14;68.43;100054.17;135248;1281;22508;-63
2023/05/09 01:15:46;;;;;;;;;;;;;;;3.16;68.57;100050.00;135297;1281;22517;-64
2023/05/09 01:18:49;;;;;;;;;;;;;;;3.13;69.26;100053.48;135332;1262;24209;-66
2023/05/09 01:21:51;;;;;;;;;;;;;;;3.19;69.13;100051.88;135213;1281;22512;-67
2023/05/09 01:24:55;;;;;;;;;;;;;;;3.26;69.61;100048.16;135369;1281;22520;-63
2023/05/09 01:27:57;;;;;;;;;;;;;;;3.29;69.23;100051.06;135370;1281;22584;-66
2023/05/09 01:31:00;;;;;;;;;;;;;;;3.17;68.71;100049.13;135193;1281;22532;-65
2023/05/09 01:34:04;;;;;;;;;;;;;;;3.08;68.82;100042.82;135336;1262;24265;-66
2023/05/09 01:37:06;;;;;;;;;;;;;;;3.05;69.22;100041.65;135386;1281;25380;-62
2023/05/09 01:40:09;;;;;;;;;;;;;;;2.99;69.41;100044.30;135364;1281;22514;-68
2023/05/09 01:43:13;;;;;;;;;;;;;;;2.98;69.81;100037.23;135368;1281;22574;-67
2023/05/09 01:46:16;;;;;;;;;;;;;;;3.05;69.60;100034.05;135265;1281;22544;-63
2023/05/09 01:49:19;;;;;;;;;;;;;;;3.05;69.49;100033.88;135326;1281;22513;-64
2023/05/09 01:52:22;;;;;;;;;;;;;;;3.10;69.07;100032.42;135335;1281;22507;-66
2023/05/09 01:55:24;;;;;;;;;;;;;;;3.13;69.19;100028.94;135373;1281;22617;-66
2023/05/09 01:58:27;;;;;;;;;;;;;;;3.22;69.31;100033.34;135398;1281;22799;-64
2023/05/09 02:01:30;;;;;;;;;;;;;;;3.23;68.84;100029.68;135336;1281;22501;-63
2023/05/09 02:04:33;;;;;;;;;;;;;;;3.15;69.24;100031.86;135341;1281;22507;-66
2023/05/09 02:07:36;;;;;;;;;;;;;;;3.15;68.51;100031.00;135356;1281;22511;-62
2023/05/09 02:10:39;;;;;;;;;;;;;;;3.11;69.27;100030.70;135357;1281;22525;-68
2023/05/09 02:13:41;;;;;;;;;;;;;;;3.09;69.37;100029.34;135356;1281;22524;-65
2023/05/09 02:16:44;;;;;;;;;;;;;;;3.10;69.29;100025.17;135288;1281;25486;-66
2023/05/09 02:19:47;;;;;;;;;;;;;;;2.93;69.17;100024.33;135172;1281;22600;-67
2023/05/09 02:22:50;;;;;;;;;;;;;;;2.83;68.75;100032.71;135375;1281;22500;-65
2023/05/09 02:25:53;;;;;;;;;;;;;;;2.75;69.06;100029.34;135395;1281;22507;-68
2023/05/09 02:28:55;;;;;;;;;;;;;;;2.63;69.87;100032.38;135364;1281;22521;-66
2023/05/09 02:31:58;;;;;;;;;;;;;;;2.59;69.94;100030.02;135324;1281;22612;-64
2023/05/09 02:35:01;;;;;;;;;;;;;;;2.52;69.98;100024.38;135351;1281;22526;-67
2023/05/09 02:38:03;;;;;;;;;;;;;;;2.48;70.14;100022.33;135243;1281;22510;-67
2023/05/09 02:41:06;;;;;;;;;;;;;;;2.40;69.96;100018.60;135374;1281;22523;-63
2023/05/09 02:44:09;;;;;;;;;;;;;;;2.37;69.78;100014.84;135306;1281;22512;-64
2023/05/09 02:47:12;;;;;;;;;;;;;;;2.41;69.72;100019.64;135366;1281;22513;-67
2023/05/09 02:50:14;;;;;;;;;;;;;;;2.42;69.62;100018.59;135406;1281;22507;-68
2023/05/09 02:53:17;;;;;;;;;;;;;;;2.44;69.79;100015.80;135334;1281;22532;-67
2023/05/09 02:56:20;;;;;;;;;;;;;;;2.39;70.31;100017.40;135335;1281;22611;-68
2023/05/09 02:59:22;;;;;;;;;;;;;;;2.42;70.17;100019.27;135322;1281;25268;-63
2023/05/09 03:02:25;;;;;;;;;;;;;;;2.36;70.94;100022.95;135356;1262;22494;-67
2023/05/09 03:05:28;;;;;;;;;;;;;;;2.38;71.08;100023.98;135383;1281;22523;-66
2023/05/09 03:08:31;;;;;;;;;;;;;;;2.43;71.06;100028.42;135370;1281;22491;-66
2023/05/09 03:11:35;;;;;;;;;;;;;;;2.41;71.18;100024.30;135363;1281;22526;-66
2023/05/09 03:14:38;;;;;;;;;;;;;;;2.39;71.10;100024.83;135190;1281;22646;-63
2023/05/09 03:17:40;;;;;;;;;;;;;;;2.31;71.11;100022.14;135359;1281;22497;-67
2023/05/09 03:20:43;;;;;;;;;;;;;;;2.28;71.46;100024.74;135262;1281;25388;-65
2023/05/09 03:23:45;;;;;;;;;;;;;;;2.32;71.34;100022.12;135347;1281;24019;-63
2023/05/09 03:26:48;;;;;;;;;;;;;;;2.38;71.87;100025.88;135251;1281;22560;-63
2023/05/09 03:29:51;;;;;;;;;;;;;;;2.48;72.18;100023.71;135395;1281;22672;-66
2023/05/09 03:32:54;;;;;;;;;;;;;;;2.66;71.99;100019.75;135350;1262;23043;-66
2023/05/09 03:35:56;;;;;;;;;;;;;;;2.87;72.21;100019.04;135327;1281;22518;-66
2023/05/09 03:38:59;;;;;;;;;;;;;;;3.11;72.08;100014.63;135351;1270;22616;-67
2023/05/09 03:42:03;;;;;;;;;;;;;;;3.42;71.64;100018.05;135363;1281;22529;-63
2023/05/09 03:45:05;;;;;;;;;;;;;;;3.75;71.53;100016.74;135316;1281;22513;-66
2023/05/09 03:48:08;;;;;;;;;;;;;;;4.05;70.68;100022.02;135293;1281;22507;-64
2023/05/09 03:51:11;;;;;;;;;;;;;;;4.35;70.26;100021.55;135319;1281;22628;-65
2023/05/09 03:54:14;;;;;;;;;;;;;;;4.66;69.33;100018.10;135325;1281;22502;-67
2023/05/09 03:57:16;;;;;;;;;;;;;;;4.93;68.78;100018.46;135325;1281;22543;-63
2023/05/09 04:00:19;;;;;;;;;;;;;;;5.19;68.27;100021.45;135331;1281;22505;-64
2023/05/09 04:03:22;;;;;;;;;;;;;;;5.36;68.01;100016.94;135358;1281;22501;-66
2023/05/09 04:06:25;;;;;;;;;;;;;;;5.55;67.95;100017.93;135301;1281;22498;-64
2023/05/09 04:09:28;;;;;;;;;;;;;;;5.63;67.37;100014.11;135241;1281;22968;-64
2023/05/09 04:12:32;;;;;;;;;;;;;;;5.85;67.26;100018.16;135350;1281;22508;-66
2023/05/09 04:15:35;;;;;;;;;;;;;;;6.06;66.40;100012.13;135327;1281;22563;-65
2023/05/09 04:18:41;;;;;;;;;;;;;;;6.26;66.28;100009.75;135361;1281;22504;-63
2023/05/09 04:21:43;;;;;;;;;;;;;;;6.54;66.10;100011.32;135062;1268;22531;-65
2023/05/09 04:24:46;;;;;;;;;;;;;;;6.81;65.72;100007.33;135095;1281;22529;-64
2023/05/09 04:27:48;;;;;;;;;;;;;;;6.89;65.69;100011.09;135324;1281;22510;-65
2023/05/09 04:30:51;;;;;;;;;;;;;;;7.05;65.06;100011.89;135335;1281;22513;-66
2023/05/09 04:33:54;;;;;;;;;;;;;;;7.16;65.08;100011.58;135362;1281;26527;-63
2023/05/09 04:36:57;;;;;;;;;;;;;;;7.31;64.99;100013.77;135353;1281;23210;-63
2023/05/09 04:40:01;;;;;;;;;;;;;;;7.51;65.24;100015.46;135249;1281;22500;-64
2023/05/09 04:43:06;;;;;;;;;;;;;;;7.75;65.81;100010.04;135308;1281;22527;-66
2023/05/09 04:46:09;;;;;;;;;;;;;;;8.07;66.10;100008.89;135350;1281;22520;-65
2023/05/09 04:49:14;;;;;;;;;;;;;;;8.33;66.72;100007.53;135315;1281;22511;-64
2023/05/09 04:52:17;;;;;;;;;;;;;;;8.65;67.13;100004.58;135343;1262;22504;-66
2023/05/09 04:55:20;;;;;;;;;;;;;;;9.02;66.61;100008.53;135243;1281;22538;-68
2023/05/09 04:58:24;;;;;;;;;;;;;;;9.45;65.91;100005.38;135340;1281;22584;-64
2023/05/09 05:01:27;;;;;;;;;;;;;;;9.90;65.58;100010.98;135242;1281;22508;-67
2023/05/09 05:04:30;;;;;;;;;;;;;;;10.34;66.24;100005.61;135308;1281;22649;-67
2023/05/09 05:07:34;;;;;;;;;;;;;;;10.86;65.31;100001.70;135102;1281;22534;-66
2023/05/09 05:10:37;;;;;;;;;;;;;;;11.36;64.12;99994.40;135271;1281;22507;-66
2023/05/09 05:13:40;;;;;;;;;;;;;;;11.83;63.77;99999.74;135349;1281;25435;-64
2023/05/09 05:16:46;;;;;;;;;;;;;;;12.11;64.12;99996.68;135348;1281;24240;-68
2023/05/09 05:19:49;;;;;;;;;;;;;;;12.40;63.25;99998.63;135344;1281;22505;-68
2023/05/09 05:22:53;;;;;;;;;;;;;;;12.87;61.55;99998.54;135319;1281;22509;-69
2023/05/09 05:25:57;;;;;;;;;;;;;;;13.20;59.65;100004.18;135255;1281;23863;-67
2023/05/09 05:29:00;;;;;;;;;;;;;;;13.39;58.56;100001.59;135354;1281;22520;-70
2023/05/09 05:32:04;;;;;;;;;;;;;;;13.61;57.82;99998.52;135273;1281;22631;-64
2023/05/09 05:35:09;;;;;;;;;;;;;;;13.89;57.09;99998.38;135288;1281;22624;-64
2023/05/09 05:38:13;;;;;;;;;;;;;;;14.04;56.94;99996.80;135315;1281;22504;-70
2023/05/09 05:41:16;;;;;;;;;;;;;;;14.33;55.99;99998.67;135299;1281;23303;-64
2023/05/09 05:44:20;;;;;;;;;;;;;;;14.52;54.18;99990.88;135268;1281;22556;-69
2023/05/09 05:47:23;;;;;;;;;;;;;;;14.45;53.00;99984.05;135339;1281;22528;-66
2023/05/09 05:50:27;;;;;;;;;;;;;;;14.66;54.91;99975.48;135302;1281;22524;-67
2023/05/09 05:53:30;;;;;;;;;;;;;;;15.01;53.59;99970.77;135297;1281;22532;-67
2023/05/09 05:56:34;;;;;;;;;;;;;;;15.25;52.18;99963.11;135261;1281;22528;-65
2023/05/09 05:59:36;;;;;;;;;;;;;;;15.40;50.35;99965.89;135342;1281;22516;-64
2023/05/09 06:02:39;;;;;;;;;;;;;;;15.55;49.60;99961.95;135286;1281;22500;-69
2023/05/09 06:05:42;;;;;;;;;;;;;;;15.84;50.55;99962.59;135331;1262;22493;-68
2023/05/09 06:08:45;;;;;;;;;;;;;;;16.13;49.02;99953.84;135286;1281;22510;-68
2023/05/09 06:11:49;;;;;;;;;;;;;;;16.34;48.03;99956.70;135245;1281;22498;-65
2023/05/09 06:14:52;;;;;;;;;;;;;;;16.55;48.62;99957.23;135327;1281;22618;-64
2023/05/09 06:17:56;;;;;;;;;;;;;;;16.76;46.54;99958.45;135315;1281;22507;-68
2023/05/09 06:20:59;;;;;;;;;;;;;;;16.89;45.71;99956.69;135291;1281;22511;-66
2023/05/09 06:24:05;;;;;;;;;;;;;;;16.89;45.38;99953.85;135324;1281;22501;-67
2023/05/09 06:27:09;;;;;;;;;;;;;;;17.11;45.21;99952.33;135288;1281;25499;-69
2023/05/09 06:30:13;;;;;;;;;;;;;;;17.29;45.28;99950.03;135297;1281;25223;-67
2023/05/09 06:33:16;;;;;;;;;;;;;;;17.41;43.13;99945.64;135288;1281;22521;-66
2023/05/09 06:36:20;;;;;;;;;;;;;;;17.58;43.83;99942.77;135282;1281;22497;-71
2023/05/09 06:39:23;;;;;;;;;;;;;;;17.73;42.83;99945.98;135329;1281;22512;-66
2023/05/09 06:42:27;;;;;;;;;;;;;;;17.94;43.07;99943.23;135266;1281;22518;-66
2023/05/09 06:45:30;;;;;;;;;;;;;;;18.21;43.45;99949.02;135272;1281;22511;-66
2023/05/09 06:48:34;;;;;;;;;;;;;;;18.35;41.84;99951.55;135303;1281;23152;-69
2023/05/09 06:51:41;;;;;;;;;;;;;;;18.19;40.44;99947.77;135299;1281;22500;-69
2023/05/09 06:54:47;;;;;;;;;;;;;;;18.24;40.28;99952.34;135243;1281;22529;-67
2023/05/09 06:57:51;;;;;;;;;;;;;;;18.38;39.76;99954.45;135340;1281;22635;-64
2023/05/09 07:00:54;;;;;;;;;;;;;;;18.49;39.87;99953.45;135303;1281;22586;-67
2023/05/09 07:03:58;;;;;;;;;;;;;;;18.60;39.30;99953.02;135311;1281;22496;-66
2023/05/09 07:07:02;;;;;;;;;;;;;;;18.49;38.75;99952.08;135296;1281;22514;-72
2023/05/09 07:10:06;;;;;;;;;;;;;;;18.35;38.44;99950.84;135308;1281;22499;-66
2023/05/09 07:13:09;;;;;;;;;;;;;;;18.54;39.43;99948.52;135201;1281;23338;-67
2023/05/09 07:16:12;;;;;;;;;;;;;;;18.79;38.83;99939.70;135234;1264;22531;-67
2023/05/09 07:19:15;;;;;;;;;;;;;;;19.06;39.29;99932.83;135319;1281;22645;-66
2023/05/09 07:22:18;;;;;;;;;;;;;;;19.38;38.63;99934.88;135318;1281;22530;-70
2023/05/09 07:25:21;;;;;;;;;;;;;;;19.51;37.59;99931.56;135336;1281;25393;-67
2023/05/09 07:28:23;;;;;;;;;;;;;;;19.49;37.68;99927.42;135281;1262;22507;-68
2023/05/09 07:31:27;;;;;;;;;;;;;;;19.65;37.19;99926.16;135292;1281;22512;-66
2023/05/09 07:34:29;;;;;;;;;;;;;;;19.64;36.27;99921.11;135309;1262;22538;-67
2023/05/09 07:37:33;;;;;;;;;;;;;;;19.69;36.52;99919.13;135375;1281;22559;-71
2023/05/09 07:40:37;;;;;;;;;;;;;;;19.90;36.24;99912.83;135277;1262;24343;-69
2023/05/09 07:43:41;;;;;;;;;;;;;;;19.97;34.63;99914.39;135270;1281;22616;-71
2023/05/09 07:46:44;;;;;;;;;;;;;;;19.85;34.51;99907.69;135281;1262;22500;-69
2023/05/09 07:49:47;;;;;;;;;;;;;;;19.66;33.94;99907.10;135218;1281;22534;-69
2023/05/09 07:52:51;;;;;;;;;;;;;;;19.56;34.36;99908.26;135328;1281;22512;-69
2023/05/09 07:55:54;;;;;;;;;;;;;;;19.68;35.29;99903.53;135290;1281;22507;-68
2023/05/09 07:58:57;;;;;;;;;;;;;;;19.89;34.94;99897.58;135348;1262;22516;-65
2023/05/09 08:02:00;;;;;;;;;;;;;;;20.04;34.53;99894.41;135328;1281;23866;-67
2023/05/09 08:05:06;;;;;;;;;;;;;;;20.26;33.79;99897.24;135328;1281;22531;-70
2023/05/09 08:08:09;;;;;;;;;;;;;;;20.32;33.86;99889.39;135290;1281;22513;-66
2023/05/09 08:11:12;;;;;;;;;;;;;;;20.23;33.24;99884.63;135293;1281;22528;-72
2023/05/09 08:14:14;;;;;;;;;;;;;;;20.30;33.66;99880.52;135300;1262;22511;-68
2023/05/09 08:17:18;;;;;;;;;;;;;;;20.39;32.94;99880.11;135318;1281;22506;-69
2023/05/09 08:20:20;;;;;;;;;;;;;;;20.05;32.84;99881.39;135296;1281;22504;-66
2023/05/09 08:23:24;;;;;;;;;;;;;;;20.27;33.36;99874.04;135327;1281;25269;-66
2023/05/09 08:26:28;;;;;;;;;;;;;;;20.56;33.24;99871.18;135306;1281;22530;-69
2023/05/09 08:29:31;;;;;;;;;;;;;;;20.81;32.29;99870.13;135310;1281;22507;-71
2023/05/09 08:32:35;;;;;;;;;;;;;;;20.98;32.50;99870.84;135397;1280;25598;-68
2023/05/09 08:35:38;;;;;;;;;;;;;;;20.72;30.24;99865.90;135624;1280;22612;-69
2023/05/09 08:38:42;;;;;;;;;;;;;;;20.84;31.51;99876.09;135490;1280;22488;-72
2023/05/09 08:41:45;;;;;;;;;;;;;;;21.20;31.97;99869.73;135577;1280;24216;-70
2023/05/09 08:44:47;;;;;;;;;;;;;;;21.51;31.31;99868.81;135572;1280;22519;-66
2023/05/09 08:47:49;;;;;;;;;;;;;;;21.42;30.40;99861.40;135629;1280;22525;-70
2023/05/09 08:50:52;;;;;;;;;;;;;;;21.36;31.41;99858.88;135607;1280;22617;-70
2023/05/09 08:53:59;;;;;;;;;;;;;;;21.45;30.56;99852.92;135533;1280;22537;-66
2023/05/09 08:57:02;;;;;;;;;;;;;;;21.47;30.29;99855.58;135555;1280;22553;-66
2023/05/09 09:00:09;;;;;;;;;;;;;;;21.58;30.34;99849.45;135555;1280;22494;-68
2023/05/09 09:03:12;;;;;;;;;;;;;;;21.53;29.45;99841.41;135622;1280;22497;-72
2023/05/09 09:06:16;;;;;;;;;;;;;;;21.26;28.79;99843.29;135577;1263;22501;-68
2023/05/09 09:09:19;;;;;;;;;;;;;;;21.27;29.06;99853.55;135573;1280;22500;-70
2023/05/09 09:12:22;;;;;;;;;;;;;;;21.41;28.70;99857.33;135565;1280;22513;-65
2023/05/09 09:15:25;;;;;;;;;;;;;;;21.60;29.30;99853.74;135574;1280;25367;-68
2023/05/09 09:18:29;;;;;;;;;;;;;;;21.74;28.58;99844.78;135620;1280;22515;-67
2023/05/09 09:21:33;;;;;;;;;;;;;;;21.75;28.72;99848.48;135608;1280;22547;-71
2023/05/09 09:24:36;;;;;;;;;;;;;;;21.84;29.02;99844.81;135575;1262;22653;-69
2023/05/09 09:27:40;;;;;;;;;;;;;;;22.00;29.02;99847.21;135546;1268;22500;-67
2023/05/09 09:30:43;;;;;;;;;;;;;;;22.11;27.84;99845.91;135596;1280;22520;-71
2023/05/09 09:33:46;;;;;;;;;;;;;;;22.05;28.22;99839.88;135649;1280;22495;-65
2023/05/09 09:36:52;;;;;;;;;;;;;;;22.10;28.00;99839.53;135565;1280;22527;-68
2023/05/09 09:39:56;;;;;;;;;;;;;;;22.19;27.91;99839.41;135603;1280;22719;-66
2023/05/09 09:42:58;;;;;;;;;;;;;;;22.34;27.86;99832.52;135498;1280;22721;-69
2023/05/09 09:46:01;;;;;;;;;;;;;;;22.46;27.68;99828.86;135564;1280;22505;-70
2023/05/09 09:49:04;;;;;;;;;;;;;;;22.48;27.30;99826.39;135628;1280;22500;-69
2023/05/09 09:52:08;;;;;;;;;;;;;;;22.34;27.25;99825.43;135587;1280;22564;-70
2023/05/09 09:55:12;;;;;;;;;;;;;;;22.22;27.08;99824.77;135295;1280;22493;-72
2023/05/09 09:58:16;;;;;;;;;;;;;;;22.42;27.25;99819.54;135596;1280;22512;-67
2023/05/09 10:01:20;;;;;;;;;;;;;;;22.43;26.90;99819.08;135576;1280;22463;-69
2023/05/09 10:04:23;;;;;;;;;;;;;;;22.63;27.95;99822.50;135539;1280;24238;-70
2023/05/09 10:07:26;;;;;;;;;;;;;;;22.94;27.63;99816.35;135593;1280;22592;-67
2023/05/09 10:10:30;;;;;;;;;;;;;;;23.09;27.29;99818.23;135601;1280;23603;-67
2023/05/09 10:13:36;;;;;;;;;;;;;;;22.91;26.20;99803.61;135646;1280;22505;-68
2023/05/09 10:16:39;;;;;;;;;;;;;;;22.50;26.11;99806.05;135597;1280;22501;-70
2023/05/09 10:19:43;;;;;;;;;;;;;;;22.48;27.14;99799.02;135619;1280;22540;-69
2023/05/09 10:22:50;;;;;;;;;;;;;;;22.81;26.90;99796.21;135461;1280;22506;-69
2023/05/09 10:25:52;;;;;;;;;;;;;;;22.94;27.16;99800.21;135444;1280;22530;-70
2023/05/09 10:28:55;;;;;;;;;;;;;;;23.02;26.97;99787.70;135616;1280;22503;-71
2023/05/09 10:31:59;;;;;;;;;;;;;;;23.15;26.70;99789.30;135621;1262;22543;-67
2023/05/09 10:35:02;;;;;;;;;;;;;;;23.26;26.99;99787.16;135652;1280;22523;-68
2023/05/09 10:38:05;;;;;;;;;;;;;;;23.48;27.03;99791.59;135488;1280;22641;-68
2023/05/09 10:41:09;;;;;;;;;;;;;;;23.61;26.99;99787.07;135663;1280;22515;-68
2023/05/09 10:44:12;;;;;;;;;;;;;;;23.68;26.82;99789.21;135624;1271;24241;-67
2023/05/09 10:47:15;;;;;;;;;;;;;;;23.64;26.93;99778.73;135597;1280;22515;-71
2023/05/09 10:50:18;;;;;;;;;;;;;;;23.58;26.57;99776.00;135608;1280;22509;-68
2023/05/09 10:53:23;;;;;;;;;;;;;;;23.60;26.69;99768.83;135631;1280;22509;-71
2023/05/09 10:56:26;;;;;;;;;;;;;;;23.80;26.98;99757.67;135586;1280;22530;-68
2023/05/09 10:59:30;;;;;;;;;;;;;;;23.84;25.97;99760.86;135639;1280;22543;-67
2023/05/09 11:02:33;;;;;;;;;;;;;;;23.74;26.41;99763.52;135637;1280;22551;-68
2023/05/09 11:05:37;;;;;;;;;;;;;;;23.98;26.71;99754.34;135629;1262;22509;-67
2023/05/09 11:08:40;;;;;;;;;;;;;;;24.20;26.43;99741.70;135632;1280;22511;-69
2023/05/09 11:11:43;;;;;;;;;;;;;;;24.28;26.35;99744.27;135615;1262;22511;-67
2023/05/09 11:14:45;;;;;;;;;;;;;;;24.22;26.24;99743.02;135618;1271;22580;-66
2023/05/09 11:17:48;;;;;;;;;;;;;;;24.27;25.97;99743.48;135594;1280;25382;-68
2023/05/09 11:20:51;;;;;;;;;;;;;;;24.29;26.07;99725.52;135629;1280;25429;-66
2023/05/09 11:23:54;;;;;;;;;;;;;;;24.25;25.32;99731.98;135594;1280;22512;-68
2023/05/09 11:26:57;;;;;;;;;;;;;;;24.02;25.84;99733.13;135605;1280;22512;-69
2023/05/09 11:30:00;;;;;;;;;;;;;;;23.95;25.97;99732.33;135609;1280;22532;-68
2023/05/09 11:33:05;;;;;;;;;;;;;;;23.99;26.10;99722.04;135605;1280;22524;-70
2023/05/09 11:36:08;;;;;;;;;;;;;;;24.19;26.36;99715.90;135624;1280;22622;-68
2023/05/09 11:39:11;;;;;;;;;;;;;;;24.14;25.14;99716.73;135633;1280;22519;-66
2023/05/09 11:42:14;;;;;;;;;;;;;;;23.90;25.40;99719.02;135630;1280;22511;-68
2023/05/09 11:45:21;;;;;;;;;;;;;;;24.05;25.50;99722.33;135598;1280;22504;-69
2023/05/09 11:48:26;;;;;;;;;;;;;;;24.21;25.46;99709.37;135654;1280;22517;-67
2023/05/09 11:51:30;;;;;;;;;;;;;;;24.39;25.51;99705.58;135613;1280;22506;-66
2023/05/09 11:54:33;;;;;;;;;;;;;;;24.64;25.52;99706.13;135596;1280;22504;-67
2023/05/09 11:57:37;;;;;;;;;;;;;;;24.59;25.04;99704.50;135594;1280;22503;-68
2023/05/09 12:00:41;;;;;;;;;;;;;;;24.67;25.20;99704.63;135629;1280;22504;-68
2023/05/09 12:03:44;;;;;;;;;;;;;;;24.68;25.59;99693.21;135619;1280;22524;-69
2023/05/09 12:06:48;;;;;;;;;;;;;;;24.81;24.99;99688.89;131311;1280;5364217;-67
2023/05/09 12:09:51;;;;;;;;;;;;;;;24.82;26.17;99688.34;135604;1280;22540;-67
2023/05/09 12:12:54;;;;;;;;;;;;;;;25.06;25.54;99688.35;135633;1271;22639;-69
2023/05/09 12:15:56;;;;;;;;;;;;;;;25.33;25.29;99685.54;135610;1280;22546;-66
2023/05/09 12:18:59;;;;;;;;;;;;;;;24.96;24.81;99685.99;135452;1280;22518;-69
2023/05/09 12:22:04;;;;;;;;;;;;;;;24.44;25.07;99680.55;135612;1280;22504;-66
2023/05/09 12:25:07;;;;;;;;;;;;;;;23.78;25.19;99687.79;135621;1271;22540;-66
2023/05/09 12:28:10;;;;;;;;;;;;;;;23.79;25.60;99681.04;135568;1280;24370;-66
2023/05/09 12:31:12;;;;;;;;;;;;;;;24.23;25.91;99666.30;135614;1264;22826;-68
2023/05/09 12:34:15;;;;;;;;;;;;;;;24.36;25.12;99661.27;135632;1280;22521;-66
2023/05/09 12:37:18;;;;;;;;;;;;;;;24.18;25.50;99658.34;135600;1280;22620;-67
2023/05/09 12:40:21;;;;;;;;;;;;;;;24.44;25.73;99651.27;135503;1280;22615;-68
2023/05/09 12:43:24;;;;;;;;;;;;;;;24.58;25.66;99643.36;135653;1280;22504;-65
2023/05/09 12:46:28;;;;;;;;;;;;;;;24.75;25.48;99641.88;135666;1280;22501;-66
2023/05/09 12:49:31;;;;;;;;;;;;;;;25.01;25.85;99635.19;135595;1280;22665;-68
2023/05/09 12:52:38;;;;;;;;;;;;;;;25.40;26.00;99629.33;135625;1280;22505;-66
2023/05/09 12:55:42;;;;;;;;;;;;;;;25.43;24.29;99636.49;135594;1280;22533;-69
2023/05/09 12:58:46;;;;;;;;;;;;;;;25.14;24.70;99630.33;135577;1280;22514;-71
2023/05/09 13:01:49;;;;;;;;;;;;;;;24.91;24.74;99621.08;135494;1280;22492;-69
2023/05/09 13:04:53;;;;;;;;;;;;;;;25.11;25.46;99618.52;135566;1280;22506;-69
2023/05/09 13:07:56;;;;;;;;;;;;;;;25.39;24.99;99624.02;135664;1280;22528;-70
2023/05/09 13:10:59;;;;;;;;;;;;;;;25.41;24.32;99613.40;135660;1280;22502;-65
2023/05/09 13:14:03;;;;;;;;;;;;;;;25.08;24.39;99613.13;135613;1280;22526;-68
2023/05/09 13:17:06;;;;;;;;;;;;;;;25.21;24.59;99612.77;135449;1280;22576;-70
2023/05/09 13:20:09;;;;;;;;;;;;;;;25.22;25.16;99614.29;135597;1280;22508;-70
2023/05/09 13:23:11;;;;;;;;;;;;;;;25.41;24.81;99612.38;135608;1280;24494;-66
2023/05/09 13:26:14;;;;;;;;;;;;;;;25.57;24.88;99601.42;135604;1280;24258;-69
2023/05/09 13:29:17;;;;;;;;;;;;;;;25.48;24.28;99601.21;135596;1280;22536;-67
2023/05/09 13:32:20;;;;;;;;;;;;;;;25.25;24.08;99598.92;135569;1280;22528;-66
2023/05/09 13:35:23;;;;;;;;;;;;;;;25.01;24.54;99592.84;135616;1280;22549;-68
2023/05/09 13:38:29;;;;;;;;;;;;;;;25.13;24.15;99583.26;135640;1280;22514;-68
2023/05/09 13:41:32;;;;;;;;;;;;;;;25.41;25.15;99580.72;135589;1280;23202;-68
2023/05/09 13:44:35;;;;;;;;;;;;;;;25.58;24.74;99581.11;135547;1280;22510;-69
2023/05/09 13:47:38;;;;;;;;;;;;;;;25.60;24.68;99580.05;135597;1280;25626;-67
2023/05/09 13:50:42;;;;;;;;;;;;;;;25.52;24.64;99569.95;135567;1280;22509;-70
2023/05/09 13:53:48;;;;;;;;;;;;;;;25.45;24.31;99577.23;135472;1280;22514;-69
2023/05/09 13:56:56;;;;;;;;;;;;;;;25.38;24.49;99571.03;135613;1280;24367;-72
2023/05/09 13:59:59;;;;;;;;;;;;;;;25.11;23.88;99560.42;135566;1280;22497;-68
2023/05/09 14:03:02;;;;;;;;;;;;;;;24.77;24.33;99559.08;135609;1280;22504;-70
2023/05/09 14:06:08;;;;;;;;;;;;;;;24.79;24.64;99559.53;135610;1280;22599;-71
2023/05/09 14:09:11;;;;;;;;;;;;;;;25.13;24.96;99552.50;135589;1280;22550;-70
2023/05/09 14:12:15;;;;;;;;;;;;;;;25.01;23.83;99545.00;135593;1280;22508;-71
2023/05/09 14:15:18;;;;;;;;;;;;;;;25.05;24.74;99544.63;135583;1280;22501;-69
2023/05/09 14:18:22;;;;;;;;;;;;;;;25.00;24.14;99550.27;135575;1280;22563;-67
2023/05/09 14:21:26;;;;;;;;;;;;;;;25.04;24.72;99545.17;135594;1280;23679;-65
2023/05/09 14:24:30;;;;;;;;;;;;;;;25.02;23.67;99536.17;135581;1280;22999;-66
2023/05/09 14:27:35;;;;;;;;;;;;;;;24.75;23.95;99540.48;135565;1280;23330;-70
2023/05/09 14:30:38;;;;;;;;;;;;;;;24.81;24.74;99536.80;135572;1280;22524;-70
2023/05/09 14:33:42;;;;;;;;;;;;;;;25.09;25.21;99536.23;135555;1280;22541;-71
2023/05/09 14:36:45;;;;;;;;;;;;;;;25.25;24.45;99542.51;135573;1280;22507;-71
2023/05/09 14:39:49;;;;;;;;;;;;;;;25.41;24.57;99543.64;135602;1280;22515;-71
2023/05/09 14:42:52;;;;;;;;;;;;;;;25.71;24.47;99532.04;135547;1280;22514;-70
2023/05/09 14:45:54;;;;;;;;;;;;;;;25.85;24.19;99532.27;135581;1280;22586;-67
2023/05/09 14:49:02;;;;;;;;;;;;;;;25.72;23.63;99525.46;135596;1264;22513;-71
2023/05/09 14:52:05;;;;;;;;;;;;;;;25.45;23.85;99531.71;135581;1280;22544;-74
2023/05/09 14:55:08;;;;;;;;;;;;;;;25.24;23.64;99529.05;135581;1280;22528;-74
2023/05/09 14:58:15;;;;;;;;;;;;;;;25.20;23.77;99529.20;135534;1264;23137;-71
2023/05/09 15:01:18;;;;;;;;;;;;;;;25.21;23.87;99527.59;135578;1280;22532;-72
2023/05/09 15:04:21;;;;;;;;;;;;;;;25.27;23.39;99515.67;135545;1264;22610;-68
2023/05/09 15:07:24;;;;;;;;;;;;;;;25.75;23.79;99521.18;135526;1280;22511;-68
2023/05/09 15:10:27;;;;;;;;;;;;;;;27.00;23.07;99510.58;135540;1280;24263;-67
2023/05/09 15:13:30;;;;;;;;;;;;;;;28.45;22.06;99508.40;135510;1280;23050;-65
2023/05/09 15:16:32;;;;;;;;;;;;;;;29.71;21.04;99497.29;135462;1280;24400;-68
2023/05/09 15:19:41;;;;;;;;;;;;;;;30.27;20.02;99490.43;135540;1270;22646;-70
2023/05/09 15:22:44;;;;;;;;;;;;;;;31.35;20.23;99492.35;135346;1261;22510;-68
2023/05/09 15:25:49;;;;;;;;;;;;;;;32.36;19.41;99494.95;135566;1280;22520;-70
2023/05/09 15:28:53;;;;;;;;;;;;;;;32.91;18.74;99483.23;135500;1280;22521;-71
2023/05/09 15:31:55;;;;;;;;;;;;;;;33.20;18.35;99484.13;135478;1280;24392;-71
2023/05/09 15:34:58;;;;;;;;;;;;;;;33.60;17.88;99486.23;135552;1280;24379;-69
2023/05/09 15:38:01;;;;;;;;;;;;;;;34.49;18.39;99485.11;135567;1280;22536;-67
2023/05/09 15:41:05;;;;;;;;;;;;;;;35.36;16.90;99481.14;135479;1280;22517;-68